createdAt,value
2023-09-21T00:01:54.269Z,99738.56
2023-09-21T00:04:28.260Z,99739.15
2023-09-21T00:07:01.396Z,99744.60
2023-09-21T00:09:33.919Z,99738.45
2023-09-21T00:12:06.442Z,99737.25
2023-09-21T00:14:38.776Z,99735.75
2023-09-21T00:17:11.250Z,99736.52
2023-09-21T00:19:43.026Z,99734.45
2023-09-21T00:22:15.260Z,99718.45
2023-09-21T00:24:48.865Z,99722.69
2023-09-21T00:27:23.209Z,99718.96
2023-09-21T00:29:55.520Z,99718.82
2023-09-21T00:32:28.120Z,99714.23
2023-09-21T00:35:00.795Z,99714.04
2023-09-21T00:37:37.713Z,99713.19
2023-09-21T00:40:22.592Z,99708.93
2023-09-21T00:42:54.890Z,99708.52
2023-09-21T00:45:26.766Z,99710.27
2023-09-21T00:47:59.156Z,99708.92
2023-09-21T00:50:31.616Z,99709.48
2023-09-21T00:53:05.766Z,99709.61
2023-09-21T00:55:41.263Z,99707.67
2023-09-21T00:58:13.827Z,99702.77
2023-09-21T01:00:47.628Z,99702.70
2023-09-21T01:03:22.222Z,99707.96
2023-09-21T01:05:55.061Z,99704.02
2023-09-21T01:08:30.633Z,99703.39
2023-09-21T01:11:09.107Z,99700.54
2023-09-21T01:13:42.767Z,99699.36
2023-09-21T01:16:17.108Z,99701.70
2023-09-21T01:18:54.363Z,99698.64
2023-09-21T01:21:36.994Z,99693.77
2023-09-21T01:24:12.591Z,99691.30
2023-09-21T01:26:44.629Z,99692.70
2023-09-21T01:29:17.917Z,99688.86
2023-09-21T01:31:50.315Z,99684.09
2023-09-21T01:34:22.210Z,99679.46
2023-09-21T01:36:56.691Z,99673.92
2023-09-21T01:39:28.739Z,99671.70
2023-09-21T01:42:00.806Z,99667.32
2023-09-21T01:44:35.102Z,99670.13
2023-09-21T01:47:13.009Z,99667.43
2023-09-21T01:49:45.919Z,99664.20
2023-09-21T01:52:19.460Z,99655.73
2023-09-21T01:54:52.288Z,99654.92
2023-09-21T01:57:24.301Z,99654.90
2023-09-21T01:59:57.351Z,99636.95
2023-09-21T02:02:29.480Z,99649.30
2023-09-21T02:05:01.536Z,99647.17
2023-09-21T02:07:33.546Z,99644.52
2023-09-21T02:10:11.817Z,99642.42
2023-09-21T02:12:52.215Z,99642.84
2023-09-21T02:15:24.482Z,99640.27
2023-09-21T02:17:58.451Z,99636.70
2023-09-21T02:20:32.658Z,99630.66
2023-09-21T02:23:05.521Z,99629.61
2023-09-21T02:25:40.172Z,99621.41
2023-09-21T02:28:13.071Z,99623.24
2023-09-21T02:30:48.763Z,99626.14
2023-09-21T02:33:21.597Z,99622.39
2023-09-21T02:35:53.683Z,99614.13
2023-09-21T02:38:26.543Z,99620.89
2023-09-21T02:40:58.434Z,99610.60
2023-09-21T02:43:30.576Z,99614.34
2023-09-21T02:46:03.440Z,99618.56
2023-09-21T02:48:36.006Z,99618.16
2023-09-21T02:51:07.945Z,99617.59
2023-09-21T02:53:40.142Z,99612.36
2023-09-21T02:56:12.035Z,99611.85
2023-09-21T02:58:44.342Z,99607.75
2023-09-21T03:01:19.728Z,99608.63
2023-09-21T03:03:51.745Z,99608.23
2023-09-21T03:06:24.938Z,99607.35
2023-09-21T03:08:57.246Z,99600.80
2023-09-21T03:11:29.519Z,99601.61
2023-09-21T03:14:04.760Z,99597.15
2023-09-21T03:16:39.621Z,99595.85
2023-09-21T03:19:13.272Z,99598.17
2023-09-21T03:21:46.600Z,99592.18
2023-09-21T03:24:19.218Z,99593.48
2023-09-21T03:26:51.775Z,99593.52
2023-09-21T03:29:24.835Z,99590.47
2023-09-21T03:31:56.746Z,99588.80
2023-09-21T03:34:28.804Z,99589.95
2023-09-21T03:37:02.211Z,99587.56
2023-09-21T03:39:34.825Z,99588.23
2023-09-21T03:42:07.406Z,99587.26
2023-09-21T03:44:39.322Z,99581.73
2023-09-21T03:47:15.003Z,99579.80
2023-09-21T03:49:46.957Z,99579.90
2023-09-21T03:52:19.222Z,99577.40
2023-09-21T03:54:53.248Z,99576.10
2023-09-21T03:57:29.014Z,99571.42
2023-09-21T04:00:00.972Z,99568.97
2023-09-21T04:02:33.233Z,99565.27
2023-09-21T04:05:08.775Z,99565.34
2023-09-21T04:07:40.853Z,99562.42
2023-09-21T04:10:13.137Z,99560.70
2023-09-21T04:12:45.950Z,99560.52
2023-09-21T04:15:19.851Z,99557.12
2023-09-21T04:17:52.341Z,99555.48
2023-09-21T04:20:24.840Z,99559.54
2023-09-21T04:22:56.693Z,99556.68
2023-09-21T04:25:31.228Z,99554.98
2023-09-21T04:28:03.259Z,99550.52
2023-09-21T04:30:36.170Z,99548.48
2023-09-21T04:33:09.033Z,99549.70
2023-09-21T04:35:41.702Z,99549.55
2023-09-21T04:38:14.045Z,99548.88
2023-09-21T04:40:50.606Z,99550.75
2023-09-21T04:43:21.755Z,99550.30
2023-09-21T04:45:54.519Z,99547.38
2023-09-21T04:48:26.787Z,99549.98
2023-09-21T04:50:59.216Z,99549.57
2023-09-21T04:53:31.422Z,99548.36
2023-09-21T04:56:03.819Z,99544.85
2023-09-21T04:58:36.637Z,99545.71
2023-09-21T05:01:12.051Z,99544.77
2023-09-21T05:03:44.707Z,99542.59
2023-09-21T05:06:19.917Z,99541.34
2023-09-21T05:08:52.510Z,99540.98
2023-09-21T05:11:24.680Z,99542.52
2023-09-21T05:13:56.595Z,99542.19
2023-09-21T05:16:28.527Z,99548.06
2023-09-21T05:19:00.435Z,99544.38
2023-09-21T05:21:32.449Z,99543.52
2023-09-21T05:24:04.693Z,99544.82
2023-09-21T05:26:39.827Z,99536.08
2023-09-21T05:29:14.863Z,99531.96
2023-09-21T05:31:46.712Z,99528.64
2023-09-21T05:34:18.903Z,99529.45
2023-09-21T05:36:52.926Z,99529.40
2023-09-21T05:39:24.916Z,99524.92
2023-09-21T05:41:56.844Z,99525.04
2023-09-21T05:44:29.499Z,99524.33
2023-09-21T05:47:01.424Z,99522.71
2023-09-21T05:49:35.916Z,99521.90
2023-09-21T05:52:13.220Z,99519.97
2023-09-21T05:54:45.538Z,99520.66
2023-09-21T05:57:17.927Z,99518.40
2023-09-21T05:59:51.530Z,99516.98
2023-09-21T06:02:23.980Z,99517.09
2023-09-21T06:04:55.864Z,99513.91
2023-09-21T06:07:28.377Z,99515.39
2023-09-21T06:10:00.654Z,99514.48
2023-09-21T06:12:32.416Z,99520.06
2023-09-21T06:15:07.088Z,99517.27
2023-09-21T06:17:41.455Z,99514.71
2023-09-21T06:20:16.160Z,99514.88
2023-09-21T06:22:48.671Z,99516.20
2023-09-21T06:25:21.393Z,99515.08
2023-09-21T06:27:53.241Z,99514.50
2023-09-21T06:30:25.195Z,99511.71
2023-09-21T06:32:57.635Z,99507.34
2023-09-21T06:35:29.696Z,99512.98
2023-09-21T06:38:01.512Z,99508.73
2023-09-21T06:40:38.152Z,99512.96
2023-09-21T06:43:10.143Z,99514.34
2023-09-21T06:45:43.670Z,99512.23
2023-09-21T06:48:15.679Z,99505.82
2023-09-21T06:50:48.574Z,99506.44
2023-09-21T06:53:20.477Z,99502.71
2023-09-21T06:55:52.353Z,99505.52
2023-09-21T06:58:24.373Z,99497.17
2023-09-21T07:00:56.430Z,99496.79
2023-09-21T07:03:28.951Z,99497.91
2023-09-21T07:06:01.355Z,99499.67
2023-09-21T07:08:33.654Z,99500.73
2023-09-21T07:11:07.340Z,99503.40
2023-09-21T07:13:39.673Z,99498.05
2023-09-21T07:16:13.962Z,99497.63
2023-09-21T07:18:47.610Z,99497.22
2023-09-21T07:21:19.743Z,99488.95
2023-09-21T07:23:51.813Z,99488.77
2023-09-21T07:26:24.043Z,99491.89
2023-09-21T07:28:59.489Z,99492.19
2023-09-21T07:31:34.329Z,99488.09
2023-09-21T07:34:07.838Z,99487.20
2023-09-21T07:36:40.326Z,99488.06
2023-09-21T07:39:13.209Z,99488.25
2023-09-21T07:41:48.079Z,99489.73
2023-09-21T07:44:21.945Z,99489.98
2023-09-21T07:46:54.796Z,99492.50
2023-09-21T07:49:29.328Z,99487.70
2023-09-21T07:52:01.573Z,99483.36
2023-09-21T07:54:34.443Z,99485.21
2023-09-21T07:57:07.852Z,99482.70
2023-09-21T07:59:39.883Z,99483.44
2023-09-21T08:02:11.890Z,99488.61
2023-09-21T08:04:44.037Z,99481.97
2023-09-21T08:07:17.157Z,99485.95
2023-09-21T08:09:49.276Z,99485.89
2023-09-21T08:12:21.430Z,99483.57
2023-09-21T08:14:53.965Z,99482.66
2023-09-21T08:17:26.155Z,99482.25
2023-09-21T08:19:59.253Z,99473.51
2023-09-21T08:22:31.282Z,99476.20
2023-09-21T08:25:04.233Z,99476.81
2023-09-21T08:27:36.326Z,99470.83
2023-09-21T08:30:10.845Z,99469.66
2023-09-21T08:32:48.051Z,99466.02
2023-09-21T08:35:20.359Z,99467.32
2023-09-21T08:37:52.651Z,99464.98
2023-09-21T08:40:26.412Z,99459.16
2023-09-21T08:43:00.273Z,99458.42
2023-09-21T08:45:34.038Z,99463.80
2023-09-21T08:48:07.532Z,99456.89
2023-09-21T08:50:41.101Z,99449.63
2023-09-21T08:53:20.095Z,99452.63
2023-09-21T08:55:53.500Z,99455.39
2023-09-21T08:58:27.869Z,99449.48
2023-09-21T09:01:00.764Z,99453.42
2023-09-21T09:03:33.131Z,99450.15
2023-09-21T09:06:05.913Z,99441.66
2023-09-21T09:08:37.904Z,99440.27
2023-09-21T09:11:09.747Z,99435.84
2023-09-21T09:13:42.185Z,99433.96
2023-09-21T09:16:14.280Z,99428.46
2023-09-21T09:18:48.032Z,99430.64
2023-09-21T09:21:21.589Z,99428.10
2023-09-21T09:23:53.535Z,99429.10
2023-09-21T09:26:26.077Z,99426.16
2023-09-21T09:29:06.436Z,99422.41
2023-09-21T09:31:41.876Z,99427.27
2023-09-21T09:34:18.578Z,99423.98
2023-09-21T09:36:53.417Z,99422.06
2023-09-21T09:39:25.796Z,99414.84
2023-09-21T09:41:58.514Z,99416.80
2023-09-21T09:44:35.372Z,99407.61
2023-09-21T09:47:11.938Z,99411.11
2023-09-21T09:49:49.324Z,99404.98
2023-09-21T09:52:24.455Z,99401.91
2023-09-21T09:54:57.514Z,99405.19
2023-09-21T09:57:30.899Z,99407.45
2023-09-21T10:00:06.696Z,99402.65
2023-09-21T10:02:41.826Z,99403.15
2023-09-21T10:05:14.254Z,99402.43
2023-09-21T10:07:47.297Z,99402.10
2023-09-21T10:10:21.398Z,99400.77
2023-09-21T10:12:56.593Z,99394.63
2023-09-21T10:15:31.047Z,99391.40
2023-09-21T10:18:03.496Z,99391.79
2023-09-21T10:20:38.736Z,99389.89
2023-09-21T10:23:12.982Z,99390.95
2023-09-21T10:25:50.136Z,99384.14
2023-09-21T10:28:40.462Z,99382.31
2023-09-21T10:31:26.629Z,99377.03
2023-09-21T10:34:17.426Z,99376.67
2023-09-21T10:36:53.479Z,99368.23
2023-09-21T10:39:27.779Z,99362.41
2023-09-21T10:42:16.891Z,99356.88
2023-09-21T10:45:04.254Z,99348.31
2023-09-21T10:47:43.385Z,99351.02
2023-09-21T10:50:17.229Z,99347.29
2023-09-21T10:52:52.278Z,99341.00
2023-09-21T10:55:24.674Z,99335.09
2023-09-21T10:58:01.975Z,99335.88
2023-09-21T11:00:34.577Z,99333.09
2023-09-21T11:03:07.993Z,99321.73
2023-09-21T11:05:40.404Z,99329.22
2023-09-21T11:08:13.459Z,99325.05
2023-09-21T11:10:45.861Z,99319.05
2023-09-21T11:13:19.868Z,99307.05
2023-09-21T11:15:55.746Z,99304.19
2023-09-21T11:18:30.265Z,99308.23
2023-09-21T11:21:02.376Z,99308.18
2023-09-21T11:23:37.349Z,99307.97
2023-09-21T11:26:12.602Z,99298.80
2023-09-21T11:28:47.150Z,99299.33
2023-09-21T11:31:19.943Z,99295.02
2023-09-21T11:33:52.328Z,99295.77
2023-09-21T11:36:25.738Z,99290.98
2023-09-21T11:38:57.991Z,99292.65
2023-09-21T11:41:30.617Z,99286.80
2023-09-21T11:44:05.959Z,99281.85
2023-09-21T11:46:38.677Z,99283.50
2023-09-21T11:49:12.243Z,99274.42
2023-09-21T11:51:48.536Z,99273.08
2023-09-21T11:54:20.996Z,99266.59
2023-09-21T11:56:56.203Z,99259.42
2023-09-21T11:59:28.478Z,99257.52
2023-09-21T12:02:01.273Z,99259.09
2023-09-21T12:04:34.522Z,99249.21
2023-09-21T12:07:07.205Z,99242.92
2023-09-21T12:09:42.198Z,99243.41
2023-09-21T12:12:15.434Z,99236.96
2023-09-21T12:14:47.430Z,99235.70
2023-09-21T12:17:20.858Z,99230.91
2023-09-21T12:19:54.390Z,99227.11
2023-09-21T12:22:28.441Z,99222.52
2023-09-21T12:25:03.419Z,99221.98
2023-09-21T12:27:36.594Z,99220.64
2023-09-21T12:30:13.418Z,99222.81
2023-09-21T12:32:45.974Z,99216.95
2023-09-21T12:35:22.041Z,99216.61
2023-09-21T12:37:57.113Z,99212.48
2023-09-21T12:40:29.433Z,99214.02
2023-09-21T12:43:01.994Z,99216.65
2023-09-21T12:45:34.763Z,99213.89
2023-09-21T12:48:09.992Z,99214.86
2023-09-21T12:50:42.200Z,99210.88
2023-09-21T12:53:14.855Z,99207.14
2023-09-21T12:55:48.172Z,99199.56
2023-09-21T12:58:20.103Z,99206.17
2023-09-21T13:00:53.969Z,99204.73
2023-09-21T13:03:26.130Z,99203.35
2023-09-21T13:05:58.471Z,99200.54
2023-09-21T13:08:30.868Z,99199.10
2023-09-21T13:11:04.820Z,99192.91
2023-09-21T13:13:38.995Z,99194.27
2023-09-21T13:16:12.274Z,99197.41
2023-09-21T13:18:45.240Z,99197.80
2023-09-21T13:21:19.778Z,99181.67
2023-09-21T13:23:56.956Z,99189.21
2023-09-21T13:26:29.633Z,99186.25
2023-09-21T13:29:01.974Z,99187.15
2023-09-21T13:31:34.246Z,99181.88
2023-09-21T13:34:06.343Z,99182.10
2023-09-21T13:36:38.337Z,99182.77
2023-09-21T13:39:10.550Z,99181.58
2023-09-21T13:41:42.756Z,99177.52
2023-09-21T13:44:14.710Z,99180.52
2023-09-21T13:46:46.474Z,99178.42
2023-09-21T13:49:21.090Z,99182.07
2023-09-21T13:51:53.390Z,99177.80
2023-09-21T13:54:25.984Z,99173.77
2023-09-21T13:56:57.962Z,99176.77
2023-09-21T13:59:29.892Z,99178.87
2023-09-21T14:02:02.196Z,99177.59
2023-09-21T14:04:34.401Z,99161.67
2023-09-21T14:07:06.484Z,99167.23
2023-09-21T14:09:38.680Z,99163.70
2023-09-21T14:12:10.843Z,99157.89
2023-09-21T14:14:42.980Z,99160.47
2023-09-21T14:17:15.244Z,99155.80
2023-09-21T14:19:47.197Z,99156.86
2023-09-21T14:22:19.333Z,99149.84
2023-09-21T14:24:52.730Z,99149.81
2023-09-21T14:27:25.706Z,99147.23
2023-09-21T14:29:57.861Z,99142.66
2023-09-21T14:32:30.436Z,99147.42
2023-09-21T14:35:03.675Z,99149.31
2023-09-21T14:37:37.911Z,99149.67
2023-09-21T14:40:11.721Z,99150.13
2023-09-21T14:42:45.639Z,99144.35
2023-09-21T14:45:20.121Z,99144.19
2023-09-21T14:47:54.504Z,99138.44
2023-09-21T14:50:26.784Z,99137.50
2023-09-21T14:52:58.672Z,99123.13
2023-09-21T14:55:32.670Z,99134.35
2023-09-21T14:58:05.107Z,99123.87
2023-09-21T15:00:38.150Z,99129.94
2023-09-21T15:03:10.341Z,99126.42
2023-09-21T15:05:42.593Z,99123.45
2023-09-21T15:08:14.517Z,99118.55
2023-09-21T15:10:46.445Z,99117.20
2023-09-21T15:13:19.144Z,99114.20
2023-09-21T15:15:51.525Z,99118.55
2023-09-21T15:18:25.107Z,99118.66
2023-09-21T15:20:57.282Z,99115.51
2023-09-21T15:23:29.520Z,99115.58
2023-09-21T15:26:13.627Z,99114.69
2023-09-21T15:28:51.381Z,99110.51
2023-09-21T15:31:23.299Z,99111.25
2023-09-21T15:33:55.521Z,99109.94
2023-09-21T15:36:27.784Z,99107.41
2023-09-21T15:38:59.920Z,99101.59
2023-09-21T15:41:32.011Z,99099.45
2023-09-21T15:44:04.155Z,99099.75
2023-09-21T15:46:39.617Z,99094.14
2023-09-21T15:49:11.814Z,99091.98
2023-09-21T15:51:44.109Z,99088.56
2023-09-21T15:54:16.518Z,99086.02
2023-09-21T15:56:48.539Z,99083.41
2023-09-21T15:59:20.764Z,99078.06
2023-09-21T16:01:52.861Z,99073.83
2023-09-21T16:04:24.846Z,99075.81
2023-09-21T16:06:59.327Z,99079.61
2023-09-21T16:09:31.268Z,99077.91
2023-09-21T16:12:06.210Z,99074.62
2023-09-21T16:14:38.154Z,99069.08
2023-09-21T16:17:10.417Z,99072.75
2023-09-21T16:19:42.245Z,99068.52
2023-09-21T16:22:14.264Z,99066.27
2023-09-21T16:24:47.234Z,99065.73
2023-09-21T16:27:21.883Z,99066.11
2023-09-21T16:29:53.922Z,99063.05
2023-09-21T16:32:26.264Z,99057.48
2023-09-21T16:34:58.686Z,99062.95
2023-09-21T16:37:30.650Z,99068.66
2023-09-21T16:40:05.910Z,99067.60
2023-09-21T16:42:38.069Z,99068.66
2023-09-21T16:45:12.580Z,99067.83
2023-09-21T16:47:44.922Z,99066.22
2023-09-21T16:50:16.844Z,99062.95
2023-09-21T16:52:48.689Z,99058.46
2023-09-21T16:55:20.809Z,99055.09
2023-09-21T16:57:52.963Z,99049.14
2023-09-21T17:00:25.655Z,99049.95
2023-09-21T17:02:59.616Z,99053.06
2023-09-21T17:05:33.904Z,99052.39
2023-09-21T17:08:07.083Z,99055.77
2023-09-21T17:10:39.208Z,99058.36
2023-09-21T17:13:11.756Z,99060.11
2023-09-21T17:15:43.888Z,99047.46
2023-09-21T17:18:16.016Z,99056.36
2023-09-21T17:20:48.240Z,99059.11
2023-09-21T17:23:20.947Z,99052.41
2023-09-21T17:25:53.168Z,99055.77
2023-09-21T17:28:25.427Z,99052.47
2023-09-21T17:30:57.304Z,99049.25
2023-09-21T17:33:29.867Z,99050.67
2023-09-21T17:36:02.691Z,99049.31
2023-09-21T17:38:35.039Z,99048.70
2023-09-21T17:41:07.631Z,99050.09
2023-09-21T17:43:39.789Z,99049.52
2023-09-21T17:46:11.830Z,99050.70
2023-09-21T17:48:43.991Z,99049.73
2023-09-21T17:51:16.293Z,99056.71
2023-09-21T17:53:48.359Z,99052.23
2023-09-21T17:56:20.282Z,99053.95
2023-09-21T17:58:52.205Z,99053.96
2023-09-21T18:01:27.227Z,99052.61
2023-09-21T18:03:59.989Z,99049.02
2023-09-21T18:06:32.008Z,99048.84
2023-09-21T18:09:07.107Z,99042.46
2023-09-21T18:11:39.714Z,99039.91
2023-09-21T18:14:11.703Z,99036.66
2023-09-21T18:16:44.665Z,99029.56
2023-09-21T18:19:16.612Z,99033.80
2023-09-21T18:21:48.662Z,99035.06
2023-09-21T18:24:20.670Z,99035.39
2023-09-21T18:26:52.650Z,99038.27
2023-09-21T18:29:24.508Z,99036.58
2023-09-21T18:31:56.442Z,99036.17
2023-09-21T18:34:28.547Z,99036.04
2023-09-21T18:37:00.351Z,99036.52
2023-09-21T18:39:32.523Z,99032.94
2023-09-21T18:42:04.814Z,99033.44
2023-09-21T18:44:39.154Z,99030.98
2023-09-21T18:47:11.454Z,99037.35
2023-09-21T18:49:43.656Z,99030.88
2023-09-21T18:52:15.581Z,99032.45
2023-09-21T18:54:50.556Z,99026.67
2023-09-21T18:57:22.647Z,99025.29
2023-09-21T18:59:56.959Z,99021.58
2023-09-21T19:02:29.768Z,99026.80
2023-09-21T19:05:01.805Z,99023.28
2023-09-21T19:07:34.073Z,99020.96
2023-09-21T19:10:07.074Z,99018.23
2023-09-21T19:12:39.193Z,99018.93
2023-09-21T19:15:14.062Z,99015.20
2023-09-21T19:17:47.204Z,99016.41
2023-09-21T19:20:19.617Z,99012.85
2023-09-21T19:22:51.753Z,99014.56
2023-09-21T19:25:23.675Z,99012.59
2023-09-21T19:27:55.499Z,99012.05
2023-09-21T19:30:31.331Z,99010.13
2023-09-21T19:33:03.395Z,99003.79
2023-09-21T19:35:35.324Z,99002.86
2023-09-21T19:38:07.462Z,98995.52
2023-09-21T19:40:40.656Z,98991.80
2023-09-21T19:43:12.791Z,98987.71
2023-09-21T19:45:44.907Z,98985.23
2023-09-21T19:48:17.461Z,98982.35
2023-09-21T19:50:53.241Z,98977.23
2023-09-21T19:53:25.597Z,98975.73
2023-09-21T19:55:57.484Z,98972.79
2023-09-21T19:58:29.720Z,98963.14
2023-09-21T20:01:01.772Z,98972.23
2023-09-21T20:03:33.930Z,98967.21
2023-09-21T20:06:06.308Z,98964.27
2023-09-21T20:08:38.451Z,98965.01
2023-09-21T20:11:12.357Z,98962.70
2023-09-21T20:13:45.012Z,98964.17
2023-09-21T20:16:17.140Z,98962.36
2023-09-21T20:18:50.047Z,98959.11
2023-09-21T20:21:22.395Z,98956.38
2023-09-21T20:23:54.324Z,98952.92
2023-09-21T20:26:26.281Z,98950.48
2023-09-21T20:28:58.118Z,98946.95
2023-09-21T20:31:31.355Z,98945.80
2023-09-21T20:34:04.060Z,98942.47
2023-09-21T20:36:36.159Z,98935.13
2023-09-21T20:39:08.517Z,98934.19
2023-09-21T20:41:40.610Z,98935.27
2023-09-21T20:44:17.559Z,98932.55
2023-09-21T20:46:49.765Z,98926.23
2023-09-21T20:49:22.531Z,98927.83
2023-09-21T20:51:54.438Z,98927.99
2023-09-21T20:54:26.951Z,98927.73
2023-09-21T20:56:58.956Z,98927.24
2023-09-21T20:59:33.336Z,98925.73
2023-09-21T21:02:05.379Z,98920.82
2023-09-21T21:04:37.774Z,98916.54
2023-09-21T21:07:10.508Z,98917.79
2023-09-21T21:09:42.633Z,98920.60
2023-09-21T21:12:14.597Z,98917.86
2023-09-21T21:14:46.532Z,98918.34
2023-09-21T21:17:21.141Z,98918.08
2023-09-21T21:19:53.103Z,98919.87
2023-09-21T21:22:25.106Z,98923.46
2023-09-21T21:24:59.105Z,98918.21
2023-09-21T21:27:32.202Z,98922.01
2023-09-21T21:30:05.395Z,98922.19
2023-09-21T21:32:37.454Z,98918.05
2023-09-21T21:35:16.266Z,98909.85
2023-09-21T21:37:48.669Z,98918.15
2023-09-21T21:40:20.941Z,98913.39
2023-09-21T21:42:53.228Z,98914.92
2023-09-21T21:45:26.202Z,98909.38
2023-09-21T21:47:58.383Z,98909.39
2023-09-21T21:50:30.680Z,98908.70
2023-09-21T21:53:02.744Z,98910.52
2023-09-21T21:55:36.096Z,98906.80
2023-09-21T21:58:08.120Z,98905.59
2023-09-21T22:00:40.901Z,98902.21
2023-09-21T22:03:13.097Z,98903.41
2023-09-21T22:05:45.973Z,98897.27
2023-09-21T22:08:17.993Z,98896.75
2023-09-21T22:10:50.385Z,98894.75
2023-09-21T22:13:24.709Z,98889.87
2023-09-21T22:15:56.648Z,98888.50
2023-09-21T22:18:28.794Z,98887.90
2023-09-21T22:21:01.254Z,98882.01
2023-09-21T22:23:33.195Z,98885.53
2023-09-21T22:26:11.261Z,98881.64
2023-09-21T22:28:44.276Z,98879.55
2023-09-21T22:31:17.109Z,98879.08
2023-09-21T22:33:51.391Z,98879.02
2023-09-21T22:36:24.411Z,98872.67
2023-09-21T22:38:56.678Z,98873.95
2023-09-21T22:41:28.965Z,98874.67
2023-09-21T22:44:01.783Z,98872.87
2023-09-21T22:46:34.511Z,98871.98
2023-09-21T22:49:07.892Z,98871.55
2023-09-21T22:51:39.798Z,98870.20
2023-09-21T22:54:12.160Z,98865.77
2023-09-21T22:56:44.629Z,98863.63
2023-09-21T22:59:16.459Z,98858.73
2023-09-21T23:01:48.502Z,98861.33
2023-09-21T23:04:20.790Z,98855.19
2023-09-21T23:06:52.843Z,98856.59
2023-09-21T23:09:25.300Z,98855.23
2023-09-21T23:11:58.605Z,98851.64
2023-09-21T23:14:31.593Z,98848.83
2023-09-21T23:17:03.887Z,98846.16
2023-09-21T23:19:37.454Z,98841.97
2023-09-21T23:22:09.482Z,98838.81
2023-09-21T23:24:43.280Z,98842.77
2023-09-21T23:27:15.253Z,98837.23
2023-09-21T23:29:50.033Z,98834.45
2023-09-21T23:32:21.882Z,98830.89
2023-09-21T23:34:54.366Z,98824.05
2023-09-21T23:37:26.608Z,98829.73
2023-09-21T23:39:58.550Z,98831.00
2023-09-21T23:42:30.679Z,98828.63
2023-09-21T23:45:02.562Z,98832.32
2023-09-21T23:47:34.749Z,98831.09
2023-09-21T23:50:10.980Z,98831.19
2023-09-21T23:52:45.791Z,98834.63
2023-09-21T23:55:19.312Z,98833.11
2023-09-21T23:57:51.451Z,98834.09
